sensor_id;sensor_type;location;lat;lon;timestamp;P1;durP1;ratioP1;P2;durP2;ratioP2
68300;SDS011;55146;47.468;18.806;2023-01-15T00:00:49;34.73;;;17.50;;
68300;SDS011;55146;47.468;18.806;2023-01-15T00:03:15;32.33;;;18.15;;
68300;SDS011;55146;47.468;18.806;2023-01-15T00:05:40;34.23;;;16.20;;
68300;SDS011;55146;47.468;18.806;2023-01-15T00:08:05;27.77;;;17.33;;
68300;SDS011;55146;47.468;18.806;2023-01-15T00:10:31;33.03;;;17.33;;
68300;SDS011;55146;47.468;18.806;2023-01-15T00:12:57;33.30;;;16.43;;
68300;SDS011;55146;47.468;18.806;2023-01-15T00:15:22;34.85;;;17.80;;
68300;SDS011;55146;47.468;18.806;2023-01-15T00:17:48;29.40;;;16.23;;
68300;SDS011;55146;47.468;18.806;2023-01-15T00:20:13;32.10;;;17.40;;
68300;SDS011;55146;47.468;18.806;2023-01-15T00:22:39;31.07;;;16.20;;
68300;SDS011;55146;47.468;18.806;2023-01-15T00:25:04;27.40;;;16.33;;
68300;SDS011;55146;47.468;18.806;2023-01-15T00:27:49;31.30;;;15.47;;
68300;SDS011;55146;47.468;18.806;2023-01-15T00:30:15;29.02;;;16.00;;
68300;SDS011;55146;47.468;18.806;2023-01-15T00:32:41;29.10;;;15.03;;
68300;SDS011;55146;47.468;18.806;2023-01-15T00:35:14;30.00;;;15.30;;
68300;SDS011;55146;47.468;18.806;2023-01-15T00:37:42;31.75;;;14.98;;
68300;SDS011;55146;47.468;18.806;2023-01-15T00:40:07;28.90;;;15.60;;
68300;SDS011;55146;47.468;18.806;2023-01-15T00:42:34;34.67;;;16.87;;
68300;SDS011;55146;47.468;18.806;2023-01-15T00:44:59;27.90;;;15.97;;
68300;SDS011;55146;47.468;18.806;2023-01-15T00:47:32;35.95;;;17.15;;
68300;SDS011;55146;47.468;18.806;2023-01-15T00:49:57;33.87;;;17.37;;
68300;SDS011;55146;47.468;18.806;2023-01-15T00:52:22;31.87;;;16.57;;
68300;SDS011;55146;47.468;18.806;2023-01-15T00:54:48;31.10;;;16.47;;
68300;SDS011;55146;47.468;18.806;2023-01-15T00:57:13;33.45;;;17.10;;
68300;SDS011;55146;47.468;18.806;2023-01-15T00:59:39;32.00;;;16.87;;
68300;SDS011;55146;47.468;18.806;2023-01-15T01:02:04;30.37;;;14.67;;
68300;SDS011;55146;47.468;18.806;2023-01-15T01:04:30;29.10;;;15.32;;
68300;SDS011;55146;47.468;18.806;2023-01-15T01:06:55;29.53;;;15.40;;
68300;SDS011;55146;47.468;18.806;2023-01-15T01:09:20;31.50;;;14.97;;
68300;SDS011;55146;47.468;18.806;2023-01-15T01:11:47;30.97;;;15.43;;
68300;SDS011;55146;47.468;18.806;2023-01-15T01:14:13;33.95;;;15.60;;
68300;SDS011;55146;47.468;18.806;2023-01-15T01:16:38;28.73;;;15.27;;
68300;SDS011;55146;47.468;18.806;2023-01-15T01:19:13;28.23;;;15.20;;
68300;SDS011;55146;47.468;18.806;2023-01-15T01:21:42;29.48;;;14.95;;
68300;SDS011;55146;47.468;18.806;2023-01-15T01:24:11;32.90;;;16.23;;
68300;SDS011;55146;47.468;18.806;2023-01-15T01:26:39;33.63;;;16.15;;
68300;SDS011;55146;47.468;18.806;2023-01-15T01:29:04;26.85;;;14.02;;
68300;SDS011;55146;47.468;18.806;2023-01-15T01:31:30;28.80;;;13.77;;
68300;SDS011;55146;47.468;18.806;2023-01-15T01:33:56;28.97;;;15.73;;
68300;SDS011;55146;47.468;18.806;2023-01-15T01:36:30;25.67;;;14.38;;
68300;SDS011;55146;47.468;18.806;2023-01-15T01:38:57;27.58;;;14.10;;
68300;SDS011;55146;47.468;18.806;2023-01-15T01:41:22;28.27;;;13.93;;
68300;SDS011;55146;47.468;18.806;2023-01-15T01:43:55;26.00;;;13.10;;
68300;SDS011;55146;47.468;18.806;2023-01-15T01:46:27;27.02;;;14.50;;
68300;SDS011;55146;47.468;18.806;2023-01-15T01:48:56;25.88;;;13.95;;
68300;SDS011;55146;47.468;18.806;2023-01-15T01:51:26;26.17;;;13.57;;
68300;SDS011;55146;47.468;18.806;2023-01-15T01:53:56;28.98;;;13.98;;
68300;SDS011;55146;47.468;18.806;2023-01-15T01:56:22;23.03;;;13.40;;
68300;SDS011;55146;47.468;18.806;2023-01-15T01:58:50;23.85;;;12.75;;
68300;SDS011;55146;47.468;18.806;2023-01-15T02:01:18;24.30;;;12.68;;
68300;SDS011;55146;47.468;18.806;2023-01-15T02:03:46;23.42;;;13.57;;
68300;SDS011;55146;47.468;18.806;2023-01-15T02:06:11;23.73;;;12.30;;
68300;SDS011;55146;47.468;18.806;2023-01-15T02:08:39;24.67;;;12.55;;
68300;SDS011;55146;47.468;18.806;2023-01-15T02:11:05;23.37;;;12.90;;
68300;SDS011;55146;47.468;18.806;2023-01-15T02:13:36;20.77;;;11.40;;
68300;SDS011;55146;47.468;18.806;2023-01-15T02:18:42;19.52;;;9.65;;
68300;SDS011;55146;47.468;18.806;2023-01-15T02:22:05;23.00;;;11.87;;
68300;SDS011;55146;47.468;18.806;2023-01-15T02:24:43;22.67;;;10.88;;
68300;SDS011;55146;47.468;18.806;2023-01-15T02:27:21;19.58;;;11.10;;
68300;SDS011;55146;47.468;18.806;2023-01-15T02:29:51;24.17;;;11.57;;
68300;SDS011;55146;47.468;18.806;2023-01-15T02:32:28;19.42;;;10.63;;
68300;SDS011;55146;47.468;18.806;2023-01-15T02:35:02;20.63;;;11.17;;
68300;SDS011;55146;47.468;18.806;2023-01-15T02:37:32;22.00;;;11.40;;
68300;SDS011;55146;47.468;18.806;2023-01-15T02:40:01;21.48;;;10.88;;
68300;SDS011;55146;47.468;18.806;2023-01-15T02:42:30;18.75;;;10.52;;
68300;SDS011;55146;47.468;18.806;2023-01-15T02:44:58;19.33;;;11.18;;
68300;SDS011;55146;47.468;18.806;2023-01-15T02:47:26;22.23;;;11.43;;
68300;SDS011;55146;47.468;18.806;2023-01-15T02:49:57;19.75;;;10.43;;
68300;SDS011;55146;47.468;18.806;2023-01-15T02:52:27;22.30;;;12.85;;
68300;SDS011;55146;47.468;18.806;2023-01-15T02:54:59;21.98;;;11.05;;
68300;SDS011;55146;47.468;18.806;2023-01-15T02:57:31;20.52;;;10.90;;
68300;SDS011;55146;47.468;18.806;2023-01-15T02:59:59;19.13;;;10.93;;
68300;SDS011;55146;47.468;18.806;2023-01-15T03:02:31;21.77;;;11.12;;
68300;SDS011;55146;47.468;18.806;2023-01-15T03:07:54;20.90;;;11.10;;
68300;SDS011;55146;47.468;18.806;2023-01-15T03:10:30;20.08;;;10.77;;
68300;SDS011;55146;47.468;18.806;2023-01-15T03:13:14;17.67;;;10.73;;
68300;SDS011;55146;47.468;18.806;2023-01-15T03:18:45;22.20;;;11.65;;
68300;SDS011;55146;47.468;18.806;2023-01-15T03:24:03;22.80;;;13.30;;
68300;SDS011;55146;47.468;18.806;2023-01-15T03:26:31;21.90;;;11.87;;
68300;SDS011;55146;47.468;18.806;2023-01-15T03:28:56;21.20;;;11.70;;
68300;SDS011;55146;47.468;18.806;2023-01-15T03:31:24;23.17;;;12.30;;
68300;SDS011;55146;47.468;18.806;2023-01-15T03:33:50;26.23;;;12.00;;
68300;SDS011;55146;47.468;18.806;2023-01-15T03:36:15;22.23;;;12.37;;
68300;SDS011;55146;47.468;18.806;2023-01-15T03:38:40;23.20;;;12.40;;
68300;SDS011;55146;47.468;18.806;2023-01-15T03:54:44;25.88;;;12.70;;
68300;SDS011;55146;47.468;18.806;2023-01-15T03:57:49;24.77;;;13.87;;
68300;SDS011;55146;47.468;18.806;2023-01-15T04:03:16;22.60;;;11.40;;
68300;SDS011;55146;47.468;18.806;2023-01-15T04:05:44;22.05;;;11.93;;
68300;SDS011;55146;47.468;18.806;2023-01-15T04:08:11;22.13;;;11.40;;
68300;SDS011;55146;47.468;18.806;2023-01-15T04:10:48;24.37;;;13.10;;
68300;SDS011;55146;47.468;18.806;2023-01-15T04:13:24;21.90;;;12.00;;
68300;SDS011;55146;47.468;18.806;2023-01-15T04:15:50;23.62;;;12.27;;
68300;SDS011;55146;47.468;18.806;2023-01-15T04:18:16;23.87;;;12.30;;
68300;SDS011;55146;47.468;18.806;2023-01-15T04:20:42;17.90;;;10.52;;
68300;SDS011;55146;47.468;18.806;2023-01-15T04:23:07;21.33;;;11.10;;
68300;SDS011;55146;47.468;18.806;2023-01-15T04:25:33;27.00;;;12.13;;
68300;SDS011;55146;47.468;18.806;2023-01-15T04:27:58;24.07;;;12.07;;
68300;SDS011;55146;47.468;18.806;2023-01-15T04:30:24;22.17;;;10.93;;
68300;SDS011;55146;47.468;18.806;2023-01-15T04:32:49;21.98;;;11.55;;
68300;SDS011;55146;47.468;18.806;2023-01-15T04:35:15;21.57;;;11.67;;
68300;SDS011;55146;47.468;18.806;2023-01-15T04:37:41;25.95;;;12.45;;
68300;SDS011;55146;47.468;18.806;2023-01-15T04:40:07;24.07;;;12.47;;
68300;SDS011;55146;47.468;18.806;2023-01-15T04:42:33;22.37;;;11.45;;
68300;SDS011;55146;47.468;18.806;2023-01-15T04:45:17;25.42;;;12.52;;
68300;SDS011;55146;47.468;18.806;2023-01-15T04:47:42;25.17;;;13.13;;
68300;SDS011;55146;47.468;18.806;2023-01-15T04:50:08;20.07;;;11.43;;
68300;SDS011;55146;47.468;18.806;2023-01-15T04:52:34;24.85;;;12.93;;
68300;SDS011;55146;47.468;18.806;2023-01-15T04:55:00;24.57;;;11.50;;
68300;SDS011;55146;47.468;18.806;2023-01-15T04:57:25;22.63;;;11.90;;
68300;SDS011;55146;47.468;18.806;2023-01-15T04:59:50;24.27;;;12.70;;
68300;SDS011;55146;47.468;18.806;2023-01-15T05:02:16;25.07;;;13.23;;
68300;SDS011;55146;47.468;18.806;2023-01-15T05:04:41;22.97;;;12.30;;
68300;SDS011;55146;47.468;18.806;2023-01-15T05:07:07;22.43;;;12.70;;
68300;SDS011;55146;47.468;18.806;2023-01-15T05:09:34;20.60;;;11.35;;
68300;SDS011;55146;47.468;18.806;2023-01-15T05:11:59;23.77;;;11.17;;
68300;SDS011;55146;47.468;18.806;2023-01-15T05:14:24;21.20;;;10.35;;
68300;SDS011;55146;47.468;18.806;2023-01-15T05:16:50;22.03;;;10.93;;
68300;SDS011;55146;47.468;18.806;2023-01-15T05:19:15;20.77;;;11.17;;
68300;SDS011;55146;47.468;18.806;2023-01-15T05:21:41;24.07;;;11.57;;
68300;SDS011;55146;47.468;18.806;2023-01-15T05:24:09;22.50;;;12.48;;
68300;SDS011;55146;47.468;18.806;2023-01-15T05:26:38;24.77;;;12.52;;
68300;SDS011;55146;47.468;18.806;2023-01-15T05:29:03;20.63;;;12.00;;
68300;SDS011;55146;47.468;18.806;2023-01-15T05:31:29;20.67;;;10.90;;
68300;SDS011;55146;47.468;18.806;2023-01-15T05:33:55;21.85;;;11.35;;
68300;SDS011;55146;47.468;18.806;2023-01-15T05:36:25;22.02;;;11.88;;
68300;SDS011;55146;47.468;18.806;2023-01-15T05:38:52;22.80;;;11.20;;
68300;SDS011;55146;47.468;18.806;2023-01-15T05:41:19;25.83;;;12.18;;
68300;SDS011;55146;47.468;18.806;2023-01-15T05:44:05;22.73;;;11.25;;
68300;SDS011;55146;47.468;18.806;2023-01-15T05:46:32;20.50;;;10.32;;
68300;SDS011;55146;47.468;18.806;2023-01-15T05:48:59;20.33;;;11.25;;
68300;SDS011;55146;47.468;18.806;2023-01-15T05:51:26;24.17;;;12.50;;
68300;SDS011;55146;47.468;18.806;2023-01-15T05:53:51;20.80;;;10.60;;
68300;SDS011;55146;47.468;18.806;2023-01-15T05:56:17;22.20;;;11.13;;
68300;SDS011;55146;47.468;18.806;2023-01-15T05:58:42;24.03;;;12.33;;
68300;SDS011;55146;47.468;18.806;2023-01-15T06:01:08;20.63;;;10.97;;
68300;SDS011;55146;47.468;18.806;2023-01-15T06:03:34;27.75;;;12.45;;
68300;SDS011;55146;47.468;18.806;2023-01-15T06:05:59;23.77;;;12.13;;
68300;SDS011;55146;47.468;18.806;2023-01-15T06:08:25;21.17;;;11.43;;
68300;SDS011;55146;47.468;18.806;2023-01-15T06:10:50;21.63;;;9.87;;
68300;SDS011;55146;47.468;18.806;2023-01-15T06:13:16;21.77;;;10.80;;
68300;SDS011;55146;47.468;18.806;2023-01-15T06:15:41;26.00;;;11.85;;
68300;SDS011;55146;47.468;18.806;2023-01-15T06:18:07;23.77;;;12.37;;
68300;SDS011;55146;47.468;18.806;2023-01-15T06:20:36;22.77;;;10.77;;
68300;SDS011;55146;47.468;18.806;2023-01-15T06:23:03;23.98;;;12.15;;
68300;SDS011;55146;47.468;18.806;2023-01-15T06:25:28;25.37;;;12.33;;
68300;SDS011;55146;47.468;18.806;2023-01-15T06:27:54;25.43;;;12.93;;
68300;SDS011;55146;47.468;18.806;2023-01-15T06:30:19;26.73;;;13.07;;
68300;SDS011;55146;47.468;18.806;2023-01-15T06:32:45;23.17;;;12.13;;
68300;SDS011;55146;47.468;18.806;2023-01-15T06:35:10;23.17;;;11.83;;
68300;SDS011;55146;47.468;18.806;2023-01-15T06:37:36;30.85;;;13.18;;
68300;SDS011;55146;47.468;18.806;2023-01-15T06:40:02;23.37;;;12.43;;
68300;SDS011;55146;47.468;18.806;2023-01-15T06:42:28;22.58;;;12.02;;
68300;SDS011;55146;47.468;18.806;2023-01-15T06:45:12;26.90;;;13.47;;
68300;SDS011;55146;47.468;18.806;2023-01-15T06:47:56;24.95;;;12.20;;
68300;SDS011;55146;47.468;18.806;2023-01-15T06:50:22;27.48;;;13.18;;
68300;SDS011;55146;47.468;18.806;2023-01-15T06:52:48;24.60;;;11.23;;
68300;SDS011;55146;47.468;18.806;2023-01-15T06:55:13;24.63;;;12.55;;
68300;SDS011;55146;47.468;18.806;2023-01-15T06:57:39;20.17;;;11.23;;
68300;SDS011;55146;47.468;18.806;2023-01-15T07:00:08;27.50;;;14.82;;
68300;SDS011;55146;47.468;18.806;2023-01-15T07:02:34;24.90;;;13.77;;
68300;SDS011;55146;47.468;18.806;2023-01-15T07:04:59;22.77;;;12.17;;
68300;SDS011;55146;47.468;18.806;2023-01-15T07:07:26;26.00;;;13.50;;
68300;SDS011;55146;47.468;18.806;2023-01-15T07:09:52;28.30;;;12.23;;
68300;SDS011;55146;47.468;18.806;2023-01-15T07:12:17;30.60;;;14.40;;
68300;SDS011;55146;47.468;18.806;2023-01-15T07:14:43;28.30;;;13.00;;
68300;SDS011;55146;47.468;18.806;2023-01-15T07:17:09;21.67;;;11.27;;
68300;SDS011;55146;47.468;18.806;2023-01-15T07:19:34;25.90;;;13.57;;
68300;SDS011;55146;47.468;18.806;2023-01-15T07:22:00;28.97;;;14.80;;
68300;SDS011;55146;47.468;18.806;2023-01-15T07:24:25;32.73;;;14.77;;
68300;SDS011;55146;47.468;18.806;2023-01-15T07:26:50;27.15;;;12.63;;
68300;SDS011;55146;47.468;18.806;2023-01-15T07:29:16;41.53;;;16.53;;
68300;SDS011;55146;47.468;18.806;2023-01-15T07:31:41;31.23;;;15.43;;
68300;SDS011;55146;47.468;18.806;2023-01-15T07:34:07;29.30;;;14.63;;
68300;SDS011;55146;47.468;18.806;2023-01-15T07:36:33;40.00;;;17.75;;
68300;SDS011;55146;47.468;18.806;2023-01-15T07:38:58;28.80;;;15.27;;
68300;SDS011;55146;47.468;18.806;2023-01-15T07:41:23;32.47;;;15.50;;
68300;SDS011;55146;47.468;18.806;2023-01-15T07:44:08;36.92;;;16.48;;
68300;SDS011;55146;47.468;18.806;2023-01-15T07:46:53;35.13;;;15.88;;
68300;SDS011;55146;47.468;18.806;2023-01-15T07:49:42;42.38;;;19.17;;
68300;SDS011;55146;47.468;18.806;2023-01-15T07:52:12;30.88;;;15.70;;
68300;SDS011;55146;47.468;18.806;2023-01-15T07:54:42;31.30;;;15.53;;
68300;SDS011;55146;47.468;18.806;2023-01-15T07:57:10;37.30;;;17.45;;
68300;SDS011;55146;47.468;18.806;2023-01-15T07:59:36;33.85;;;16.60;;
68300;SDS011;55146;47.468;18.806;2023-01-15T08:02:02;27.07;;;13.63;;
68300;SDS011;55146;47.468;18.806;2023-01-15T08:04:28;28.80;;;15.90;;
68300;SDS011;55146;47.468;18.806;2023-01-15T08:06:53;25.37;;;13.70;;
68300;SDS011;55146;47.468;18.806;2023-01-15T08:09:18;30.77;;;15.77;;
68300;SDS011;55146;47.468;18.806;2023-01-15T08:11:44;34.97;;;17.00;;
68300;SDS011;55146;47.468;18.806;2023-01-15T08:14:27;32.05;;;16.35;;
68300;SDS011;55146;47.468;18.806;2023-01-15T08:17:11;28.73;;;15.82;;
68300;SDS011;55146;47.468;18.806;2023-01-15T08:19:36;29.90;;;15.43;;
68300;SDS011;55146;47.468;18.806;2023-01-15T08:22:02;30.80;;;15.77;;
68300;SDS011;55146;47.468;18.806;2023-01-15T08:24:27;29.97;;;15.80;;
68300;SDS011;55146;47.468;18.806;2023-01-15T08:26:53;31.70;;;17.75;;
68300;SDS011;55146;47.468;18.806;2023-01-15T08:29:19;30.73;;;18.65;;
68300;SDS011;55146;47.468;18.806;2023-01-15T08:31:46;33.75;;;18.02;;
68300;SDS011;55146;47.468;18.806;2023-01-15T08:34:11;32.17;;;17.43;;
68300;SDS011;55146;47.468;18.806;2023-01-15T08:36:37;34.50;;;19.13;;
68300;SDS011;55146;47.468;18.806;2023-01-15T08:39:02;33.27;;;18.40;;
68300;SDS011;55146;47.468;18.806;2023-01-15T08:41:28;34.93;;;18.67;;
68300;SDS011;55146;47.468;18.806;2023-01-15T08:43:54;35.58;;;18.75;;
68300;SDS011;55146;47.468;18.806;2023-01-15T08:46:20;32.57;;;17.33;;
68300;SDS011;55146;47.468;18.806;2023-01-15T08:48:45;37.17;;;19.45;;
68300;SDS011;55146;47.468;18.806;2023-01-15T08:51:12;37.60;;;19.73;;
68300;SDS011;55146;47.468;18.806;2023-01-15T08:53:37;32.70;;;17.92;;
68300;SDS011;55146;47.468;18.806;2023-01-15T08:56:03;32.43;;;17.77;;
68300;SDS011;55146;47.468;18.806;2023-01-15T08:58:35;35.92;;;18.37;;
68300;SDS011;55146;47.468;18.806;2023-01-15T09:01:05;28.83;;;16.90;;
68300;SDS011;55146;47.468;18.806;2023-01-15T09:03:31;32.33;;;15.80;;
68300;SDS011;55146;47.468;18.806;2023-01-15T09:05:57;29.58;;;17.27;;
68300;SDS011;55146;47.468;18.806;2023-01-15T09:08:23;28.93;;;16.73;;
68300;SDS011;55146;47.468;18.806;2023-01-15T09:10:49;33.97;;;18.90;;
68300;SDS011;55146;47.468;18.806;2023-01-15T09:13:14;35.07;;;20.17;;
68300;SDS011;55146;47.468;18.806;2023-01-15T09:15:40;32.77;;;18.20;;
68300;SDS011;55146;47.468;18.806;2023-01-15T09:18:05;36.10;;;19.57;;
68300;SDS011;55146;47.468;18.806;2023-01-15T09:20:30;32.50;;;18.60;;
68300;SDS011;55146;47.468;18.806;2023-01-15T09:22:56;33.95;;;18.05;;
68300;SDS011;55146;47.468;18.806;2023-01-15T09:25:21;33.67;;;19.47;;
68300;SDS011;55146;47.468;18.806;2023-01-15T09:27:48;32.20;;;17.98;;
68300;SDS011;55146;47.468;18.806;2023-01-15T09:30:20;29.87;;;16.93;;
68300;SDS011;55146;47.468;18.806;2023-01-15T09:32:46;31.30;;;17.70;;
68300;SDS011;55146;47.468;18.806;2023-01-15T09:35:12;30.17;;;16.17;;
68300;SDS011;55146;47.468;18.806;2023-01-15T09:37:38;30.33;;;16.53;;
68300;SDS011;55146;47.468;18.806;2023-01-15T09:40:04;28.45;;;17.20;;
68300;SDS011;55146;47.468;18.806;2023-01-15T09:42:48;30.45;;;15.80;;
68300;SDS011;55146;47.468;18.806;2023-01-15T09:50:29;25.95;;;15.68;;
68300;SDS011;55146;47.468;18.806;2023-01-15T09:53:09;28.08;;;15.77;;
68300;SDS011;55146;47.468;18.806;2023-01-15T09:55:53;23.92;;;14.93;;
68300;SDS011;55146;47.468;18.806;2023-01-15T09:58:20;28.80;;;16.00;;
68300;SDS011;55146;47.468;18.806;2023-01-15T10:00:59;24.48;;;16.17;;
68300;SDS011;55146;47.468;18.806;2023-01-15T10:03:37;26.37;;;15.65;;
68300;SDS011;55146;47.468;18.806;2023-01-15T10:09:26;27.62;;;16.15;;
68300;SDS011;55146;47.468;18.806;2023-01-15T10:11:50;25.00;;;15.03;;
68300;SDS011;55146;47.468;18.806;2023-01-15T10:14:45;28.48;;;14.90;;
68300;SDS011;55146;47.468;18.806;2023-01-15T10:17:26;24.25;;;13.48;;
68300;SDS011;55146;47.468;18.806;2023-01-15T10:19:56;24.48;;;13.05;;
68300;SDS011;55146;47.468;18.806;2023-01-15T10:22:36;24.42;;;12.55;;
68300;SDS011;55146;47.468;18.806;2023-01-15T10:25:04;24.87;;;12.80;;
68300;SDS011;55146;47.468;18.806;2023-01-15T10:27:38;20.95;;;13.10;;
68300;SDS011;55146;47.468;18.806;2023-01-15T10:30:16;22.35;;;13.50;;
68300;SDS011;55146;47.468;18.806;2023-01-15T10:32:54;25.25;;;12.77;;
68300;SDS011;55146;47.468;18.806;2023-01-15T10:43:58;20.05;;;11.80;;
68300;SDS011;55146;47.468;18.806;2023-01-15T10:46:32;20.30;;;11.12;;
68300;SDS011;55146;47.468;18.806;2023-01-15T10:49:11;21.62;;;12.40;;
68300;SDS011;55146;47.468;18.806;2023-01-15T10:51:46;19.67;;;12.00;;
68300;SDS011;55146;47.468;18.806;2023-01-15T10:56:45;24.27;;;12.13;;
68300;SDS011;55146;47.468;18.806;2023-01-15T10:59:17;17.83;;;10.88;;
68300;SDS011;55146;47.468;18.806;2023-01-15T11:01:47;19.80;;;13.02;;
68300;SDS011;55146;47.468;18.806;2023-01-15T11:04:16;17.65;;;11.85;;
68300;SDS011;55146;47.468;18.806;2023-01-15T11:06:43;21.47;;;13.40;;
68300;SDS011;55146;47.468;18.806;2023-01-15T11:09:16;22.65;;;12.98;;
68300;SDS011;55146;47.468;18.806;2023-01-15T11:11:45;22.05;;;12.40;;
68300;SDS011;55146;47.468;18.806;2023-01-15T11:14:35;20.27;;;11.50;;
68300;SDS011;55146;47.468;18.806;2023-01-15T11:17:44;17.52;;;10.20;;
68300;SDS011;55146;47.468;18.806;2023-01-15T11:23:40;23.92;;;11.75;;
68300;SDS011;55146;47.468;18.806;2023-01-15T11:25:59;21.17;;;11.32;;
68300;SDS011;55146;47.468;18.806;2023-01-15T11:28:43;16.80;;;10.53;;
68300;SDS011;55146;47.468;18.806;2023-01-15T11:31:10;18.15;;;11.10;;
68300;SDS011;55146;47.468;18.806;2023-01-15T11:33:37;20.62;;;11.02;;
68300;SDS011;55146;47.468;18.806;2023-01-15T11:36:22;16.10;;;9.48;;
68300;SDS011;55146;47.468;18.806;2023-01-15T11:38:49;17.43;;;10.50;;
68300;SDS011;55146;47.468;18.806;2023-01-15T11:43:51;19.77;;;11.52;;
68300;SDS011;55146;47.468;18.806;2023-01-15T11:46:37;19.02;;;11.15;;
68300;SDS011;55146;47.468;18.806;2023-01-15T11:49:20;19.30;;;12.77;;
68300;SDS011;55146;47.468;18.806;2023-01-15T11:52:05;18.90;;;11.87;;
68300;SDS011;55146;47.468;18.806;2023-01-15T11:54:38;19.35;;;11.32;;
68300;SDS011;55146;47.468;18.806;2023-01-15T11:57:07;17.70;;;11.70;;
68300;SDS011;55146;47.468;18.806;2023-01-15T11:59:32;20.73;;;12.00;;
68300;SDS011;55146;47.468;18.806;2023-01-15T12:01:59;24.80;;;12.93;;
68300;SDS011;55146;47.468;18.806;2023-01-15T12:06:59;21.48;;;12.48;;
68300;SDS011;55146;47.468;18.806;2023-01-15T12:09:38;22.05;;;12.27;;
68300;SDS011;55146;47.468;18.806;2023-01-15T12:20:26;22.83;;;13.45;;
68300;SDS011;55146;47.468;18.806;2023-01-15T12:25:59;20.73;;;11.93;;
68300;SDS011;55146;47.468;18.806;2023-01-15T12:28:44;17.87;;;10.67;;
68300;SDS011;55146;47.468;18.806;2023-01-15T12:31:43;19.50;;;10.82;;
68300;SDS011;55146;47.468;18.806;2023-01-15T12:34:21;19.15;;;10.75;;
68300;SDS011;55146;47.468;18.806;2023-01-15T12:36:57;18.77;;;11.05;;
68300;SDS011;55146;47.468;18.806;2023-01-15T12:39:42;15.00;;;9.80;;
68300;SDS011;55146;47.468;18.806;2023-01-15T12:42:30;18.13;;;10.60;;
68300;SDS011;55146;47.468;18.806;2023-01-15T12:45:16;17.27;;;11.00;;
68300;SDS011;55146;47.468;18.806;2023-01-15T12:47:50;18.00;;;10.98;;
68300;SDS011;55146;47.468;18.806;2023-01-15T12:56:11;16.67;;;10.07;;
68300;SDS011;55146;47.468;18.806;2023-01-15T13:01:15;16.98;;;10.65;;
68300;SDS011;55146;47.468;18.806;2023-01-15T13:04:21;15.90;;;10.15;;
68300;SDS011;55146;47.468;18.806;2023-01-15T13:06:52;20.12;;;11.10;;
68300;SDS011;55146;47.468;18.806;2023-01-15T13:12:43;17.40;;;10.35;;
68300;SDS011;55146;47.468;18.806;2023-01-15T13:15:13;18.37;;;10.55;;
68300;SDS011;55146;47.468;18.806;2023-01-15T13:18:03;31.20;;;14.53;;
68300;SDS011;55146;47.468;18.806;2023-01-15T13:29:17;18.12;;;10.48;;
68300;SDS011;55146;47.468;18.806;2023-01-15T13:34:53;18.15;;;9.77;;
68300;SDS011;55146;47.468;18.806;2023-01-15T13:37:20;19.10;;;9.70;;
68300;SDS011;55146;47.468;18.806;2023-01-15T13:39:58;19.62;;;10.45;;
68300;SDS011;55146;47.468;18.806;2023-01-15T13:42:28;19.13;;;11.47;;
68300;SDS011;55146;47.468;18.806;2023-01-15T13:44:56;20.42;;;11.00;;
68300;SDS011;55146;47.468;18.806;2023-01-15T13:47:29;19.10;;;9.75;;
68300;SDS011;55146;47.468;18.806;2023-01-15T13:49:59;18.17;;;10.38;;
68300;SDS011;55146;47.468;18.806;2023-01-15T13:52:32;15.18;;;9.02;;
68300;SDS011;55146;47.468;18.806;2023-01-15T13:55:07;25.23;;;11.50;;
68300;SDS011;55146;47.468;18.806;2023-01-15T13:57:37;18.62;;;10.07;;
68300;SDS011;55146;47.468;18.806;2023-01-15T14:00:24;30.37;;;13.93;;
68300;SDS011;55146;47.468;18.806;2023-01-15T14:02:52;31.73;;;17.10;;
68300;SDS011;55146;47.468;18.806;2023-01-15T14:07:53;28.50;;;12.77;;
68300;SDS011;55146;47.468;18.806;2023-01-15T14:15:24;16.07;;;9.10;;
68300;SDS011;55146;47.468;18.806;2023-01-15T14:34:55;19.23;;;9.50;;
68300;SDS011;55146;47.468;18.806;2023-01-15T14:39:57;19.40;;;10.50;;
68300;SDS011;55146;47.468;18.806;2023-01-15T14:42:31;17.67;;;10.45;;
68300;SDS011;55146;47.468;18.806;2023-01-15T14:47:57;17.45;;;9.52;;
68300;SDS011;55146;47.468;18.806;2023-01-15T14:50:34;19.87;;;10.75;;
68300;SDS011;55146;47.468;18.806;2023-01-15T14:53:05;19.20;;;10.60;;
68300;SDS011;55146;47.468;18.806;2023-01-15T14:58:32;19.07;;;9.50;;
68300;SDS011;55146;47.468;18.806;2023-01-15T15:01:34;17.48;;;9.98;;
68300;SDS011;55146;47.468;18.806;2023-01-15T15:04:10;20.12;;;10.40;;
68300;SDS011;55146;47.468;18.806;2023-01-15T15:06:49;20.10;;;10.30;;
68300;SDS011;55146;47.468;18.806;2023-01-15T15:09:26;18.42;;;9.48;;
68300;SDS011;55146;47.468;18.806;2023-01-15T15:11:57;19.27;;;8.90;;
68300;SDS011;55146;47.468;18.806;2023-01-15T15:17:37;15.45;;;9.60;;
68300;SDS011;55146;47.468;18.806;2023-01-15T15:25:35;19.03;;;9.77;;
68300;SDS011;55146;47.468;18.806;2023-01-15T15:28:08;20.30;;;10.20;;
68300;SDS011;55146;47.468;18.806;2023-01-15T15:30:38;21.00;;;11.88;;
68300;SDS011;55146;47.468;18.806;2023-01-15T15:33:09;23.00;;;13.17;;
68300;SDS011;55146;47.468;18.806;2023-01-15T15:35:42;25.73;;;14.40;;
68300;SDS011;55146;47.468;18.806;2023-01-15T15:38:18;20.70;;;12.93;;
68300;SDS011;55146;47.468;18.806;2023-01-15T15:40:52;25.27;;;14.57;;
68300;SDS011;55146;47.468;18.806;2023-01-15T15:46:24;24.90;;;13.10;;
68300;SDS011;55146;47.468;18.806;2023-01-15T15:49:13;19.70;;;11.68;;
68300;SDS011;55146;47.468;18.806;2023-01-15T15:51:43;28.08;;;14.73;;
68300;SDS011;55146;47.468;18.806;2023-01-15T15:54:23;24.58;;;14.45;;
68300;SDS011;55146;47.468;18.806;2023-01-15T15:59:34;23.77;;;13.43;;
68300;SDS011;55146;47.468;18.806;2023-01-15T16:04:46;24.85;;;15.43;;
68300;SDS011;55146;47.468;18.806;2023-01-15T16:07:14;29.73;;;16.48;;
68300;SDS011;55146;47.468;18.806;2023-01-15T16:09:48;26.25;;;14.52;;
68300;SDS011;55146;47.468;18.806;2023-01-15T16:12:16;25.30;;;15.60;;
68300;SDS011;55146;47.468;18.806;2023-01-15T16:14:43;27.27;;;15.35;;
68300;SDS011;55146;47.468;18.806;2023-01-15T16:17:10;28.77;;;15.63;;
68300;SDS011;55146;47.468;18.806;2023-01-15T16:19:37;23.92;;;13.75;;
68300;SDS011;55146;47.468;18.806;2023-01-15T16:22:06;25.85;;;15.20;;
68300;SDS011;55146;47.468;18.806;2023-01-15T16:24:37;23.77;;;14.83;;
68300;SDS011;55146;47.468;18.806;2023-01-15T16:27:04;24.98;;;14.60;;
68300;SDS011;55146;47.468;18.806;2023-01-15T16:29:37;28.60;;;16.62;;
68300;SDS011;55146;47.468;18.806;2023-01-15T16:32:10;25.80;;;14.90;;
68300;SDS011;55146;47.468;18.806;2023-01-15T16:34:37;24.42;;;13.50;;
68300;SDS011;55146;47.468;18.806;2023-01-15T16:37:10;25.92;;;14.77;;
68300;SDS011;55146;47.468;18.806;2023-01-15T16:39:47;27.62;;;15.48;;
68300;SDS011;55146;47.468;18.806;2023-01-15T16:42:59;28.10;;;15.07;;
68300;SDS011;55146;47.468;18.806;2023-01-15T16:50:33;27.95;;;15.60;;
68300;SDS011;55146;47.468;18.806;2023-01-15T16:53:01;28.73;;;16.60;;